Time;durP1;ratioP1;P1;durP2;ratioP2;P2;SDS_P1;SDS_P2;PMS_P1;PMS_P2;Temp;Humidity;BMP_temperature;BMP_pressure;BME280_temperature;BME280_humidity;BME280_pressure;Samples;Min_cycle;Max_cycle;Signal;HPM_P1;HPM_P2
2022/07/07 00:00:07;;;;;;;7.72;6.85;;;17.20;99.90;;;;;;5081646;28;20047;-66
2022/07/07 00:02:32;;;;;;;8.40;6.63;;;17.10;99.90;;;;;;5069461;28;20036;-66
2022/07/07 00:04:58;;;;;;;7.28;6.30;;;17.10;99.90;;;;;;5084860;28;20093;-66
2022/07/07 00:07:24;;;;;;;10.57;7.05;;;17.10;99.90;;;;;;5072284;28;20051;-66
2022/07/07 00:09:49;;;;;;;9.13;6.10;;;17.10;99.90;;;;;;5066984;28;20047;-66
2022/07/07 00:12:15;;;;;;;8.90;6.15;;;17.10;99.90;;;;;;5072340;28;20043;-66
2022/07/07 00:14:40;;;;;;;7.28;6.03;;;17.00;99.90;;;;;;5067516;28;20051;-67
2022/07/07 00:17:06;;;;;;;8.80;5.25;;;17.00;99.90;;;;;;5070049;28;20036;-67
2022/07/07 00:19:32;;;;;;;7.32;6.32;;;17.10;99.90;;;;;;5088913;28;20037;-66
2022/07/07 00:21:58;;;;;;;9.85;5.75;;;17.10;99.90;;;;;;5072341;28;20036;-67
2022/07/07 00:24:24;;;;;;;8.25;5.82;;;17.00;99.90;;;;;;5067932;28;20550;-66
2022/07/07 00:26:50;;;;;;;9.40;5.80;;;17.00;99.90;;;;;;5085200;28;20037;-66
2022/07/07 00:29:15;;;;;;;9.40;5.97;;;17.00;99.90;;;;;;5085199;28;20498;-66
2022/07/07 00:31:41;;;;;;;8.63;6.22;;;17.00;99.90;;;;;;5087197;28;20089;-66
2022/07/07 00:34:06;;;;;;;8.48;5.43;;;17.00;99.90;;;;;;5067855;28;20219;-66
2022/07/07 00:36:32;;;;;;;10.13;5.40;;;16.90;99.90;;;;;;5084206;28;20059;-67
2022/07/07 00:38:58;;;;;;;9.18;5.85;;;16.90;99.90;;;;;;5086346;28;20044;-67
2022/07/07 00:41:23;;;;;;;8.88;5.97;;;17.00;99.90;;;;;;5084772;28;20115;-66
2022/07/07 00:43:49;;;;;;;7.95;5.53;;;16.90;99.90;;;;;;5086847;28;20032;-67
2022/07/07 00:46:15;;;;;;;7.47;5.45;;;16.90;99.90;;;;;;5082932;28;20042;-67
2022/07/07 00:48:41;;;;;;;7.38;5.43;;;16.90;99.90;;;;;;5077589;28;20397;-67
2022/07/07 00:51:10;;;;;;;8.98;6.10;;;16.90;99.90;;;;;;5073704;28;20510;-67
2022/07/07 00:53:36;;;;;;;9.65;6.18;;;16.90;99.90;;;;;;5069494;28;20135;-67
2022/07/07 00:56:02;;;;;;;8.48;4.80;;;16.90;99.90;;;;;;5084329;28;20111;-66
2022/07/07 00:58:28;;;;;;;5.57;4.97;;;16.90;99.90;;;;;;5068252;28;20043;-66
2022/07/07 01:00:54;;;;;;;9.75;5.10;;;16.90;99.90;;;;;;5067983;28;20039;-66
2022/07/07 01:03:20;;;;;;;8.07;5.20;;;16.90;99.90;;;;;;5067867;28;20032;-66
2022/07/07 01:05:47;;;;;;;10.15;4.93;;;16.90;99.90;;;;;;5085415;28;20032;-66
2022/07/07 01:08:16;;;;;;;6.65;4.65;;;16.90;99.90;;;;;;5082757;28;20035;-67
2022/07/07 01:10:43;;;;;;;6.97;4.47;;;16.90;99.90;;;;;;5070673;28;20064;-66
2022/07/07 01:13:08;;;;;;;11.77;4.53;;;16.90;99.90;;;;;;5070009;28;20043;-66
2022/07/07 01:15:34;;;;;;;9.43;4.45;;;16.90;99.90;;;;;;5084136;28;20397;-66
2022/07/07 01:18:00;;;;;;;6.20;3.90;;;17.20;99.90;;;;;;5084847;28;20043;-66
2022/07/07 01:20:26;;;;;;;7.60;2.95;;;16.90;99.90;;;;;;5069838;28;20118;-66
2022/07/07 01:22:55;;;;;;;6.65;3.17;;;16.80;99.90;;;;;;5068078;28;20040;-66
2022/07/07 01:25:22;;;;;;;5.72;2.20;;;16.80;99.90;;;;;;5065043;28;20481;-66
2022/07/07 01:27:49;;;;;;;4.35;1.80;;;16.70;99.90;;;;;;5080288;28;20048;-66
2022/07/07 01:30:15;;;;;;;3.60;1.25;;;16.70;99.90;;;;;;5085940;28;20051;-66
2022/07/07 01:32:41;;;;;;;3.05;1.30;;;16.80;99.90;;;;;;5085258;28;21892;-66
2022/07/07 01:35:08;;;;;;;6.07;1.98;;;16.70;99.90;;;;;;5066627;28;20075;-66
2022/07/07 01:37:34;;;;;;;4.45;1.75;;;16.70;99.90;;;;;;5083376;28;20047;-66
2022/07/07 01:40:00;;;;;;;4.35;1.67;;;16.70;99.90;;;;;;5071686;28;20043;-66
2022/07/07 01:42:26;;;;;;;4.57;1.60;;;16.70;99.90;;;;;;5070404;28;20041;-66
2022/07/07 01:44:52;;;;;;;4.70;1.65;;;16.60;99.90;;;;;;5069704;28;20050;-66
2022/07/07 01:47:20;;;;;;;5.15;1.35;;;16.60;99.90;;;;;;5078806;28;20044;-66
2022/07/07 01:49:46;;;;;;;7.10;1.70;;;16.70;99.90;;;;;;5085580;28;20120;-66
2022/07/07 01:52:12;;;;;;;4.75;1.80;;;16.60;99.90;;;;;;5067917;28;20383;-66
2022/07/07 01:54:38;;;;;;;6.68;1.77;;;16.70;99.90;;;;;;5086304;28;20055;-66
2022/07/07 01:57:06;;;;;;;10.50;1.77;;;16.60;99.90;;;;;;5084985;28;20043;-66
2022/07/07 01:59:32;;;;;;;4.30;1.55;;;16.60;99.90;;;;;;5080909;28;20044;-66
2022/07/07 02:01:58;;;;;;;5.82;2.70;;;16.60;99.90;;;;;;5084823;28;20432;-66
2022/07/07 02:04:23;;;;;;;4.93;1.80;;;16.60;99.90;;;;;;5084616;28;20046;-66
2022/07/07 02:06:49;;;;;;;5.20;1.60;;;16.60;99.90;;;;;;5066943;28;20044;-66
2022/07/07 02:09:15;;;;;;;4.68;2.05;;;16.60;99.90;;;;;;5081906;28;20036;-66
2022/07/07 02:11:41;;;;;;;4.10;1.58;;;16.60;99.90;;;;;;5078211;28;20047;-66
2022/07/07 02:14:06;;;;;;;2.78;1.40;;;16.60;99.90;;;;;;5086463;28;20390;-66
2022/07/07 02:16:33;;;;;;;2.50;1.10;;;16.60;99.90;;;;;;5088055;28;20044;-66
2022/07/07 02:19:00;;;;;;;2.10;0.90;;;16.70;99.90;;;;;;5067657;28;20044;-66
2022/07/07 02:21:26;;;;;;;1.92;0.98;;;16.60;99.90;;;;;;5083644;28;20035;-66
2022/07/07 02:23:54;;;;;;;4.47;1.52;;;16.60;99.90;;;;;;5067373;28;20048;-66
2022/07/07 02:26:20;;;;;;;4.63;1.00;;;16.60;99.90;;;;;;5084468;28;20131;-66
2022/07/07 02:28:46;;;;;;;3.92;1.10;;;16.60;99.90;;;;;;5063189;28;20089;-66
2022/07/07 02:31:12;;;;;;;2.40;1.30;;;16.60;99.90;;;;;;5065418;28;20059;-67
2022/07/07 02:33:38;;;;;;;7.30;1.25;;;16.60;99.90;;;;;;5083954;28;20044;-66
2022/07/07 02:36:05;;;;;;;3.63;1.42;;;16.50;99.90;;;;;;5090090;28;20036;-66
2022/07/07 02:38:32;;;;;;;5.03;1.52;;;16.50;99.90;;;;;;5076441;28;20043;-66
2022/07/07 02:40:58;;;;;;;7.88;1.67;;;16.50;99.90;;;;;;5073502;28;20044;-66
2022/07/07 02:43:24;;;;;;;6.05;1.50;;;16.50;99.90;;;;;;5091837;28;20055;-66
2022/07/07 02:45:51;;;;;;;7.18;2.25;;;16.50;99.90;;;;;;5072409;28;20483;-66
2022/07/07 02:48:22;;;;;;;7.13;1.92;;;16.50;99.90;;;;;;5091157;28;20438;-66
2022/07/07 02:50:48;;;;;;;5.50;2.13;;;16.60;99.90;;;;;;5073702;28;20183;-66
2022/07/07 02:53:14;;;;;;;4.22;1.45;;;16.60;99.90;;;;;;5090758;28;20546;-66
2022/07/07 02:55:41;;;;;;;4.75;1.80;;;16.60;99.90;;;;;;5074307;28;20048;-66
2022/07/07 02:58:08;;;;;;;7.18;1.80;;;16.60;99.90;;;;;;5091628;28;20113;-66
2022/07/07 03:00:34;;;;;;;5.95;1.85;;;16.50;99.90;;;;;;5074312;28;20054;-66
2022/07/07 03:03:03;;;;;;;6.32;1.90;;;16.60;99.90;;;;;;5091468;28;20035;-66
2022/07/07 03:05:29;;;;;;;4.90;1.90;;;16.60;99.90;;;;;;5093731;28;20421;-66
2022/07/07 03:07:55;;;;;;;7.10;1.55;;;16.60;99.90;;;;;;5090168;28;20043;-66
2022/07/07 03:10:21;;;;;;;10.20;1.73;;;16.50;99.90;;;;;;5089349;28;20490;-66
2022/07/07 03:12:46;;;;;;;8.02;2.00;;;16.50;99.90;;;;;;5073384;28;20044;-66
2022/07/07 03:15:13;;;;;;;5.57;1.80;;;16.50;99.90;;;;;;5075813;28;20036;-66
2022/07/07 03:17:47;;;;;;;12.75;1.48;;;16.50;99.90;;;;;;5075173;28;20043;-66
2022/07/07 03:20:15;;;;;;;10.30;1.65;;;16.50;99.90;;;;;;5088063;28;20044;-66
2022/07/07 03:22:42;;;;;;;8.48;1.42;;;16.50;99.90;;;;;;5073393;28;20119;-66
2022/07/07 03:25:09;;;;;;;9.90;1.88;;;16.40;99.90;;;;;;5077594;28;20071;-66
2022/07/07 03:27:35;;;;;;;6.93;2.08;;;16.40;99.90;;;;;;5072910;28;20056;-66
2022/07/07 03:30:03;;;;;;;6.03;1.58;;;16.40;99.90;;;;;;5074224;28;20135;-66
2022/07/07 03:32:29;;;;;;;6.63;1.35;;;16.40;99.90;;;;;;5090684;28;20036;-66
2022/07/07 03:34:55;;;;;;;7.13;1.33;;;16.40;99.90;;;;;;5069477;28;20036;-66
2022/07/07 03:37:20;;;;;;;5.95;1.33;;;16.40;99.90;;;;;;5088049;28;20040;-66
2022/07/07 03:39:46;;;;;;;2.88;1.17;;;16.40;99.90;;;;;;5090277;28;20398;-66
2022/07/07 03:42:12;;;;;;;7.18;1.42;;;16.40;99.90;;;;;;5087982;28;20036;-66
2022/07/07 03:44:37;;;;;;;6.50;1.17;;;16.30;99.90;;;;;;5088985;28;20036;-66
2022/07/07 03:47:03;;;;;;;8.75;1.52;;;16.30;99.90;;;;;;5069625;28;20032;-66
2022/07/07 03:49:30;;;;;;;8.82;1.27;;;16.40;99.90;;;;;;5072044;28;20075;-66
2022/07/07 03:51:55;;;;;;;8.95;1.80;;;16.40;99.90;;;;;;5073095;28;20043;-66
2022/07/07 03:54:21;;;;;;;7.22;1.33;;;16.40;99.90;;;;;;5063846;28;20042;-66
2022/07/07 03:56:47;;;;;;;12.07;1.92;;;16.40;99.90;;;;;;5086572;28;20044;-66
2022/07/07 03:59:12;;;;;;;7.93;1.65;;;16.40;99.90;;;;;;5082832;28;20089;-66
2022/07/07 04:01:45;;;;;;;7.05;1.20;;;16.30;99.90;;;;;;5080004;28;20120;-66
2022/07/07 04:04:15;;;;;;;5.97;1.35;;;16.30;99.90;;;;;;5087059;28;20036;-66
2022/07/07 04:06:41;;;;;;;8.70;1.75;;;16.30;99.90;;;;;;5086595;28;20039;-66
2022/07/07 04:09:07;;;;;;;9.40;2.35;;;16.30;99.90;;;;;;5069397;28;20085;-66
2022/07/07 04:11:32;;;;;;;8.23;0.82;;;16.30;99.90;;;;;;5074040;28;20039;-66
2022/07/07 04:13:58;;;;;;;10.70;1.40;;;16.30;99.90;;;;;;5086614;28;20032;-66
2022/07/07 04:16:24;;;;;;;8.40;1.38;;;16.30;99.90;;;;;;5081674;28;20047;-66
2022/07/07 04:18:50;;;;;;;10.15;1.35;;;16.30;99.90;;;;;;5084017;28;20032;-66
2022/07/07 04:21:15;;;;;;;4.88;1.10;;;16.30;99.90;;;;;;5081246;28;20516;-66
2022/07/07 04:23:42;;;;;;;4.90;0.60;;;16.20;99.90;;;;;;5085170;28;20379;-66
2022/07/07 04:26:08;;;;;;;6.00;0.40;;;16.10;99.90;;;;;;5064553;28;20044;-66
2022/07/07 04:28:33;;;;;;;7.18;0.57;;;16.10;99.90;;;;;;5068308;28;20040;-66
2022/07/07 04:30:59;;;;;;;4.35;0.75;;;16.00;99.90;;;;;;5069469;28;20058;-66
2022/07/07 04:33:24;;;;;;;5.20;0.50;;;15.90;99.90;;;;;;5084188;28;20053;-66
2022/07/07 04:35:50;;;;;;;5.50;0.57;;;16.00;99.90;;;;;;5086152;28;20035;-66
2022/07/07 04:38:16;;;;;;;6.13;0.60;;;15.90;99.90;;;;;;5085926;28;20413;-66
2022/07/07 04:40:41;;;;;;;8.35;0.68;;;15.90;99.90;;;;;;5085120;28;20042;-66
2022/07/07 04:43:07;;;;;;;7.53;1.10;;;15.90;99.90;;;;;;5083526;28;20062;-66
2022/07/07 04:45:34;;;;;;;9.07;0.80;;;15.90;99.90;;;;;;5068179;28;20048;-66
2022/07/07 04:47:59;;;;;;;6.13;0.85;;;15.80;99.90;;;;;;5066389;28;20162;-65
2022/07/07 04:50:25;;;;;;;5.88;0.50;;;15.90;99.90;;;;;;5068547;28;20489;-66
2022/07/07 04:52:52;;;;;;;5.28;0.88;;;15.90;99.90;;;;;;5066512;28;20101;-66
2022/07/07 04:55:18;;;;;;;9.50;0.80;;;15.90;99.90;;;;;;5068629;28;20044;-66
2022/07/07 04:57:43;;;;;;;3.47;1.08;;;15.80;99.90;;;;;;5071840;28;20055;-66
2022/07/07 05:00:10;;;;;;;5.43;0.70;;;15.80;99.90;;;;;;5079530;28;20044;-66
2022/07/07 05:02:35;;;;;;;4.80;0.60;;;15.80;99.90;;;;;;5064187;28;20063;-66
2022/07/07 05:05:01;;;;;;;5.13;0.50;;;15.90;99.90;;;;;;5068920;28;20040;-66
2022/07/07 05:07:27;;;;;;;3.55;0.38;;;16.00;99.90;;;;;;5070660;28;20484;-66
2022/07/07 05:09:52;;;;;;;3.95;0.40;;;16.10;99.90;;;;;;5065915;28;20051;-65
2022/07/07 05:12:18;;;;;;;4.13;0.52;;;16.20;99.90;;;;;;5078623;28;20040;-65
2022/07/07 05:14:43;;;;;;;6.57;0.45;;;16.30;99.90;;;;;;5085149;28;20032;-66
2022/07/07 05:17:09;;;;;;;5.93;0.60;;;16.30;99.90;;;;;;5082535;28;20478;-65
2022/07/07 05:19:34;;;;;;;5.57;0.60;;;16.70;99.90;;;;;;5086583;28;20073;-66
2022/07/07 05:22:00;;;;;;;6.10;0.47;;;18.00;99.90;;;;;;5065126;28;20048;-66
2022/07/07 05:24:26;;;;;;;10.27;1.00;;;19.80;99.90;;;;;;5084936;28;20485;-66
2022/07/07 05:26:51;;;;;;;7.07;1.00;;;21.60;99.90;;;;;;5067595;28;20036;-66
2022/07/07 05:29:17;;;;;;;6.72;0.60;;;23.40;99.90;;;;;;5078093;28;21762;-66
2022/07/07 05:31:42;;;;;;;5.22;0.80;;;24.90;99.90;;;;;;5084903;28;20114;-66
2022/07/07 05:34:08;;;;;;;5.93;0.68;;;25.20;99.90;;;;;;5071507;28;20039;-66
2022/07/07 05:36:34;;;;;;;5.60;0.65;;;24.80;99.90;;;;;;5085152;28;20032;-66
2022/07/07 05:39:00;;;;;;;4.15;0.75;;;24.50;99.90;;;;;;5085146;28;20052;-66
2022/07/07 05:41:26;;;;;;;4.30;1.00;;;23.80;99.90;;;;;;5081408;28;20043;-66
2022/07/07 05:43:52;;;;;;;2.55;0.50;;;23.50;99.90;;;;;;5067679;28;20062;-66
2022/07/07 05:46:17;;;;;;;5.43;0.80;;;23.40;99.90;;;;;;5086281;28;20044;-66
2022/07/07 05:48:43;;;;;;;4.15;0.60;;;23.30;99.90;;;;;;5082072;28;20097;-66
2022/07/07 05:51:11;;;;;;;5.03;0.90;;;22.60;99.90;;;;;;5067463;28;20474;-66
2022/07/07 05:53:37;;;;;;;2.90;0.77;;;22.20;99.90;;;;;;5066070;28;20089;-66
2022/07/07 05:56:03;;;;;;;3.50;0.90;;;21.90;99.90;;;;;;5083365;28;20039;-66
2022/07/07 05:58:29;;;;;;;5.40;0.60;;;21.70;99.90;;;;;;5084542;28;20043;-66
2022/07/07 06:00:55;;;;;;;4.25;0.73;;;21.50;99.90;;;;;;5079111;28;20043;-66
2022/07/07 06:03:21;;;;;;;4.38;0.63;;;21.50;99.90;;;;;;5064939;28;20047;-66
2022/07/07 06:05:47;;;;;;;4.50;1.02;;;21.50;99.90;;;;;;5084915;28;20163;-66
2022/07/07 06:08:12;;;;;;;3.65;0.90;;;21.60;99.90;;;;;;5066858;28;20130;-66
2022/07/07 06:10:38;;;;;;;7.75;1.38;;;21.70;99.90;;;;;;5067777;28;20044;-66
2022/07/07 06:13:03;;;;;;;6.35;1.65;;;21.90;99.90;;;;;;5083608;28;20039;-66
2022/07/07 06:15:33;;;;;;;6.93;1.30;;;22.20;99.90;;;;;;5064902;28;20044;-66
2022/07/07 06:18:05;;;;;;;4.38;1.00;;;22.40;99.90;;;;;;5064132;28;20478;-66
2022/07/07 06:20:31;;;;;;;9.82;1.98;;;22.50;99.90;;;;;;5084317;28;20040;-66
2022/07/07 06:22:58;;;;;;;6.95;1.38;;;22.60;99.90;;;;;;5065223;28;20469;-66
2022/07/07 06:25:26;;;;;;;5.50;1.30;;;22.70;99.90;;;;;;5065510;28;20055;-66
2022/07/07 06:27:52;;;;;;;3.35;0.73;;;22.90;99.90;;;;;;5068367;28;20044;-66
2022/07/07 06:30:17;;;;;;;4.85;0.98;;;22.80;99.90;;;;;;5082244;28;20093;-66
2022/07/07 06:32:43;;;;;;;6.53;1.00;;;22.70;99.90;;;;;;5068718;28;20045;-66
2022/07/07 06:35:09;;;;;;;6.55;1.15;;;22.50;99.90;;;;;;5078968;28;20039;-66
2022/07/07 06:37:34;;;;;;;4.30;1.13;;;22.30;99.90;;;;;;5079836;28;20067;-66
2022/07/07 06:40:00;;;;;;;6.18;1.77;;;21.90;99.90;;;;;;5067768;28;20127;-66
2022/07/07 06:42:26;;;;;;;6.25;1.30;;;21.60;99.90;;;;;;5067970;28;20044;-66
2022/07/07 06:44:52;;;;;;;8.02;1.05;;;21.30;99.90;;;;;;5067887;28;20036;-66
2022/07/07 06:47:17;;;;;;;6.25;1.02;;;21.00;99.90;;;;;;5064848;28;20413;-66
2022/07/07 06:49:43;;;;;;;5.38;1.05;;;20.80;99.90;;;;;;5062145;28;20044;-66
2022/07/07 06:52:09;;;;;;;7.28;1.02;;;20.40;99.90;;;;;;5064580;28;20072;-66
2022/07/07 06:54:35;;;;;;;10.38;1.33;;;20.20;99.90;;;;;;5063682;28;20055;-66
2022/07/07 06:57:01;;;;;;;5.10;0.98;;;20.10;99.90;;;;;;5084936;28;20054;-66
2022/07/07 06:59:26;;;;;;;3.65;0.60;;;19.90;99.90;;;;;;5080439;28;20051;-66
2022/07/07 07:01:52;;;;;;;5.18;1.10;;;19.70;99.90;;;;;;5080825;28;20079;-66
2022/07/07 07:04:18;;;;;;;4.60;0.63;;;19.40;99.90;;;;;;5084775;28;20044;-66
2022/07/07 07:06:44;;;;;;;2.55;0.70;;;19.20;99.90;;;;;;5082840;28;20028;-66
2022/07/07 07:09:10;;;;;;;2.50;0.70;;;19.00;99.90;;;;;;5083666;28;20052;-66
2022/07/07 07:11:37;;;;;;;4.03;0.60;;;18.90;99.90;;;;;;5083606;28;20036;-66
2022/07/07 07:14:03;;;;;;;3.92;0.50;;;18.70;99.90;;;;;;5069503;28;20093;-66
2022/07/07 07:16:30;;;;;;;3.60;0.82;;;18.60;99.90;;;;;;5065980;28;20497;-66
2022/07/07 07:18:56;;;;;;;3.15;0.57;;;18.50;99.90;;;;;;5068066;28;20135;-66
2022/07/07 07:21:21;;;;;;;3.20;0.50;;;18.50;99.90;;;;;;5069267;28;20150;-65
2022/07/07 07:23:47;;;;;;;3.03;0.43;;;18.60;99.90;;;;;;5069533;28;20139;-66
2022/07/07 07:26:12;;;;;;;2.45;0.50;;;19.00;99.90;;;;;;5053757;28;20055;-66
2022/07/07 07:28:38;;;;;;;4.22;0.50;;;19.40;99.90;;;;;;5084496;28;20429;-66
2022/07/07 07:34:45;;;;;;;2.13;0.60;;;19.90;99.90;;;;;;5084400;28;20089;-66
2022/07/07 07:37:11;;;;;;;3.40;0.60;;;20.40;99.90;;;;;;5087098;28;20482;-66
2022/07/07 07:39:37;;;;;;;3.63;0.63;;;20.80;99.90;;;;;;5071176;28;20506;-66
2022/07/07 07:42:03;;;;;;;4.85;0.73;;;21.10;99.90;;;;;;5081731;28;20044;-66
2022/07/07 07:47:13;;;;;;;2.85;0.50;;;21.20;99.90;;;;;;5084031;28;20040;-66
2022/07/07 07:49:39;;;;;;;1.75;0.40;;;21.10;99.90;;;;;;5084846;28;20505;-66
2022/07/07 07:52:05;;;;;;;3.80;0.50;;;20.80;99.90;;;;;;5068466;28;20412;-66
2022/07/07 07:54:31;;;;;;;2.67;0.30;;;20.50;99.90;;;;;;5070165;28;20040;-66
2022/07/07 07:56:57;;;;;;;2.70;0.30;;;20.50;99.90;;;;;;5086260;28;20040;-66
2022/07/07 07:59:23;;;;;;;4.95;0.40;;;20.60;99.90;;;;;;5086948;28;20040;-66
2022/07/07 08:01:48;;;;;;;3.40;0.75;;;20.30;99.90;;;;;;5086811;28;20123;-66
2022/07/07 08:04:14;;;;;;;1.92;0.22;;;20.10;99.90;;;;;;5087077;28;20044;-66
2022/07/07 08:06:40;;;;;;;3.35;0.65;;;19.70;99.90;;;;;;5088430;28;20036;-66
2022/07/07 08:09:06;;;;;;;5.22;0.65;;;19.50;99.90;;;;;;5067203;28;20055;-65
2022/07/07 08:11:32;;;;;;;2.70;0.40;;;19.50;99.90;;;;;;5074104;28;20036;-65
2022/07/07 08:13:57;;;;;;;2.60;0.50;;;19.40;99.90;;;;;;5083886;28;20127;-65
2022/07/07 08:16:23;;;;;;;2.33;0.65;;;19.90;99.90;;;;;;5086900;28;20398;-65
2022/07/07 08:18:49;;;;;;;1.85;0.40;;;20.40;99.90;;;;;;5067068;28;20965;-66
2022/07/07 08:21:15;;;;;;;2.90;0.50;;;20.80;99.90;;;;;;5085799;28;20111;-66
2022/07/07 08:23:41;;;;;;;3.13;0.52;;;20.90;99.90;;;;;;5064973;28;20486;-66
2022/07/07 08:26:06;;;;;;;3.83;0.50;;;20.80;99.90;;;;;;5079593;28;20033;-66
2022/07/07 08:28:32;;;;;;;3.30;0.65;;;20.70;99.90;;;;;;5078522;28;20149;-66
2022/07/07 08:30:58;;;;;;;2.97;0.70;;;20.40;99.90;;;;;;5084450;28;20048;-66
2022/07/07 08:33:24;;;;;;;1.50;0.22;;;20.10;99.90;;;;;;5085908;28;20082;-66
2022/07/07 08:35:50;;;;;;;2.00;0.45;;;19.80;99.90;;;;;;5065941;28;20040;-66
2022/07/07 08:38:15;;;;;;;4.10;0.50;;;19.60;99.90;;;;;;5085127;28;20757;-66
2022/07/07 08:40:42;;;;;;;1.98;0.50;;;19.60;99.90;;;;;;5081722;28;20075;-66
2022/07/07 08:43:07;;;;;;;5.05;1.35;;;19.80;99.90;;;;;;5085647;28;20039;-66
2022/07/07 08:45:33;;;;;;;3.28;0.55;;;20.00;99.90;;;;;;5067448;28;20541;-66
2022/07/07 08:48:00;;;;;;;3.88;0.60;;;20.30;99.90;;;;;;5081870;28;20035;-66
2022/07/07 08:50:26;;;;;;;3.95;0.50;;;20.50;99.90;;;;;;5084452;28;20040;-66
2022/07/07 08:52:54;;;;;;;2.90;0.80;;;20.70;99.90;;;;;;5086562;28;20075;-66
2022/07/07 08:55:23;;;;;;;3.25;0.73;;;21.00;99.90;;;;;;5068960;28;20047;-66
2022/07/07 08:57:51;;;;;;;4.70;0.55;;;21.60;99.90;;;;;;5066688;28;20052;-66
2022/07/07 09:00:18;;;;;;;3.42;0.93;;;21.70;99.90;;;;;;5082085;28;20068;-66
2022/07/07 09:02:45;;;;;;;2.47;0.75;;;21.80;99.90;;;;;;5066098;28;20052;-66
2022/07/07 09:05:11;;;;;;;4.63;0.90;;;21.50;99.90;;;;;;5065782;28;20447;-66
2022/07/07 09:07:56;;;;;;;4.82;0.80;;;21.20;99.90;;;;;;5084945;28;20082;-66
2022/07/07 09:10:30;;;;;;;5.25;0.85;;;20.80;99.90;;;;;;5083320;28;20087;-66
2022/07/07 09:12:56;;;;;;;6.63;1.60;;;20.80;99.90;;;;;;5061646;28;20494;-66
2022/07/07 09:15:21;;;;;;;6.57;1.40;;;20.40;99.90;;;;;;5080769;28;20046;-66
2022/07/07 09:17:47;;;;;;;5.40;0.80;;;20.40;99.90;;;;;;5063761;28;20046;-66
2022/07/07 09:20:13;;;;;;;4.18;0.70;;;20.50;99.90;;;;;;5085351;28;20036;-66
2022/07/07 09:22:51;;;;;;;4.05;1.83;;;20.60;99.90;;;;;;5067648;28;20472;-66
2022/07/07 09:25:19;;;;;;;4.43;0.90;;;20.70;99.90;;;;;;5045206;28;20044;-66
2022/07/07 09:28:06;;;;;;;2.80;0.98;;;21.00;99.90;;;;;;5082874;28;20127;-66
2022/07/07 09:30:45;;;;;;;6.00;1.10;;;21.20;99.90;;;;;;5065153;28;20044;-66
2022/07/07 09:33:19;;;;;;;6.75;1.02;;;21.10;99.90;;;;;;5066213;28;20056;-66
2022/07/07 09:38:32;;;;;;;3.85;0.90;;;20.50;99.90;;;;;;5081091;28;20041;-67
2022/07/07 09:41:15;;;;;;;6.72;1.58;;;20.20;99.90;;;;;;5064544;28;20556;-66
2022/07/07 09:43:52;;;;;;;5.30;0.90;;;20.10;99.90;;;;;;5079019;28;20048;-66
2022/07/07 09:46:26;;;;;;;4.55;1.35;;;20.00;99.90;;;;;;5062617;28;20048;-66
2022/07/07 09:48:54;;;;;;;4.13;1.10;;;20.00;99.90;;;;;;5065768;28;20048;-66
2022/07/07 09:51:28;;;;;;;6.35;1.35;;;19.90;99.90;;;;;;5065127;28;20040;-66
2022/07/07 09:54:12;;;;;;;3.28;0.52;;;19.80;99.90;;;;;;5069028;28;20052;-66
2022/07/07 09:56:43;;;;;;;3.22;0.77;;;19.70;99.90;;;;;;5081526;28;20044;-66
2022/07/07 09:59:14;;;;;;;3.33;0.63;;;19.80;99.90;;;;;;5059722;28;20040;-66
2022/07/07 10:01:42;;;;;;;4.65;1.35;;;19.90;99.90;;;;;;5063249;28;20490;-66
2022/07/07 10:04:12;;;;;;;6.18;0.90;;;20.10;99.90;;;;;;5082412;28;20733;-66
2022/07/07 10:06:41;;;;;;;2.78;0.50;;;20.30;99.90;;;;;;5083794;28;20078;-66
2022/07/07 10:09:09;;;;;;;2.67;0.43;;;20.50;99.90;;;;;;5080649;28;20048;-66
2022/07/07 10:11:35;;;;;;;7.03;0.80;;;20.50;99.90;;;;;;5082238;28;20482;-66
2022/07/07 10:14:07;;;;;;;4.07;0.80;;;20.40;99.90;;;;;;5080083;28;20043;-66
2022/07/07 10:16:33;;;;;;;4.45;0.80;;;20.10;99.90;;;;;;5078814;28;20178;-66
2022/07/07 10:19:00;;;;;;;3.42;0.95;;;19.90;99.90;;;;;;5063250;28;20061;-66
2022/07/07 10:21:26;;;;;;;5.82;0.90;;;19.60;99.90;;;;;;5081578;28;20074;-66
2022/07/07 10:23:53;;;;;;;7.82;1.35;;;19.60;99.90;;;;;;5082716;28;20071;-66
2022/07/07 10:26:38;;;;;;;4.32;0.90;;;19.70;99.90;;;;;;5085006;28;20383;-66
2022/07/07 10:29:06;;;;;;;4.65;0.63;;;19.80;99.90;;;;;;5061130;28;20047;-66
2022/07/07 10:31:32;;;;;;;5.88;0.95;;;20.00;99.90;;;;;;5067473;28;20048;-66
2022/07/07 10:34:01;;;;;;;3.78;0.60;;;19.90;99.90;;;;;;5065636;28;20043;-66
2022/07/07 10:36:30;;;;;;;6.55;1.10;;;19.90;99.90;;;;;;5063287;28;20039;-66
2022/07/07 10:38:57;;;;;;;5.57;1.05;;;19.90;99.90;;;;;;5061220;28;20048;-66
2022/07/07 10:41:25;;;;;;;7.68;1.35;;;20.00;99.90;;;;;;5063126;28;20051;-67
2022/07/07 10:44:08;;;;;;;4.82;1.25;;;20.00;99.90;;;;;;5064276;28;20051;-67
2022/07/07 10:46:34;;;;;;;8.10;1.58;;;19.70;99.90;;;;;;5066614;28;20061;-66
2022/07/07 10:49:11;;;;;;;8.07;1.10;;;19.60;99.90;;;;;;5082196;28;20131;-66
2022/07/07 10:51:57;;;;;;;7.50;1.60;;;19.40;99.90;;;;;;5061197;28;20566;-66
2022/07/07 10:54:36;;;;;;;7.00;1.70;;;19.30;99.90;;;;;;5061684;28;20049;-66
2022/07/07 10:57:01;;;;;;;7.28;1.17;;;19.10;99.90;;;;;;5069430;28;20040;-66
2022/07/07 10:59:28;;;;;;;6.65;0.80;;;18.80;99.90;;;;;;5084608;28;20048;-66
2022/07/07 11:02:03;;;;;;;5.97;1.10;;;18.60;99.90;;;;;;5069116;28;20047;-66
2022/07/07 11:04:44;;;;;;;7.18;1.10;;;18.40;99.90;;;;;;5069080;28;20048;-66
2022/07/07 11:07:14;;;;;;;5.85;0.90;;;18.30;99.90;;;;;;5070348;28;20167;-66
2022/07/07 11:09:59;;;;;;;6.15;0.68;;;18.40;99.90;;;;;;5086075;28;20040;-66
2022/07/07 11:12:37;;;;;;;9.00;1.38;;;18.40;99.90;;;;;;5085643;28;20051;-66
2022/07/07 11:15:17;;;;;;;7.13;1.77;;;18.60;99.90;;;;;;5066223;28;20047;-66
2022/07/07 11:18:03;;;;;;;4.22;0.80;;;18.80;99.90;;;;;;5067455;28;20471;-66
2022/07/07 11:20:31;;;;;;;9.13;1.75;;;18.90;99.90;;;;;;5083995;28;20068;-66
2022/07/07 11:23:11;;;;;;;6.65;1.70;;;19.10;99.90;;;;;;5079069;28;20044;-65
2022/07/07 11:25:39;;;;;;;6.25;0.90;;;19.30;99.90;;;;;;5070022;28;20062;-66
2022/07/07 11:28:06;;;;;;;7.90;0.80;;;19.50;99.90;;;;;;5085185;28;20402;-66
2022/07/07 11:30:32;;;;;;;13.27;2.53;;;19.70;99.90;;;;;;5069453;28;20478;-66
2022/07/07 11:32:59;;;;;;;13.15;1.77;;;19.60;99.90;;;;;;5082734;28;20028;-66
2022/07/07 11:35:36;;;;;;;10.05;1.48;;;19.20;99.90;;;;;;5083753;28;20038;-66
2022/07/07 11:38:03;;;;;;;12.02;2.53;;;19.00;99.90;;;;;;5066525;28;20043;-66
2022/07/07 11:40:30;;;;;;;11.23;2.38;;;18.80;99.90;;;;;;5070071;28;20036;-66
2022/07/07 11:42:56;;;;;;;13.32;2.60;;;18.80;99.90;;;;;;5077820;28;20394;-66
2022/07/07 11:45:27;;;;;;;12.60;2.35;;;18.80;99.90;;;;;;5081246;28;20040;-66
2022/07/07 11:47:56;;;;;;;10.38;2.20;;;18.70;99.90;;;;;;5070450;28;20052;-66
2022/07/07 11:50:22;;;;;;;14.13;2.17;;;18.60;99.90;;;;;;5087945;28;20032;-66
2022/07/07 11:52:52;;;;;;;11.77;3.05;;;18.50;99.90;;;;;;5065182;28;20182;-66
2022/07/07 11:55:18;;;;;;;9.48;2.50;;;18.50;99.90;;;;;;5084065;28;20120;-66
2022/07/07 11:57:49;;;;;;;10.75;1.70;;;18.60;99.90;;;;;;5084034;28;20044;-66
2022/07/07 12:00:17;;;;;;;10.38;1.42;;;18.60;99.90;;;;;;5085171;28;20059;-66
2022/07/07 12:02:45;;;;;;;14.73;2.03;;;18.70;99.90;;;;;;5086619;28;20051;-66
2022/07/07 12:05:11;;;;;;;14.43;1.80;;;18.70;99.90;;;;;;5081717;28;20041;-67
2022/07/07 12:07:38;;;;;;;9.23;1.90;;;18.80;99.90;;;;;;5080757;28;20071;-66
2022/07/07 12:10:04;;;;;;;9.30;2.22;;;19.00;99.90;;;;;;5067362;28;20044;-66
2022/07/07 12:12:30;;;;;;;14.73;2.58;;;19.10;99.90;;;;;;5087264;28;20055;-66
2022/07/07 12:14:55;;;;;;;8.70;1.92;;;19.50;99.90;;;;;;5089039;28;20028;-66
2022/07/07 12:17:53;;;;;;;9.32;1.95;;;19.70;99.90;;;;;;5084484;28;20033;-66
2022/07/07 12:20:20;;;;;;;10.82;1.67;;;19.70;99.90;;;;;;5043195;28;20091;-66
2022/07/07 12:22:51;;;;;;;12.52;3.08;;;19.60;99.90;;;;;;5082163;28;20067;-68
2022/07/07 12:25:16;;;;;;;12.90;2.00;;;19.40;99.90;;;;;;5069458;28;20374;-66
2022/07/07 12:27:58;;;;;;;6.60;1.65;;;19.30;99.90;;;;;;5080405;28;20033;-67
2022/07/07 12:30:32;;;;;;;12.23;1.98;;;19.30;99.90;;;;;;5085128;28;20036;-66
2022/07/07 12:32:59;;;;;;;8.68;2.00;;;19.40;99.90;;;;;;5087771;28;20056;-66
2022/07/07 12:35:30;;;;;;;7.20;1.50;;;19.50;99.90;;;;;;5084219;28;20032;-66
2022/07/07 12:37:58;;;;;;;8.77;2.08;;;19.50;99.90;;;;;;5080475;28;20470;-66
2022/07/07 12:40:25;;;;;;;10.80;2.63;;;19.30;99.90;;;;;;5086750;28;20066;-66
2022/07/07 12:42:51;;;;;;;10.88;2.20;;;19.20;99.90;;;;;;5081352;28;20119;-66
2022/07/07 12:45:18;;;;;;;8.85;1.83;;;19.10;99.90;;;;;;5070984;28;20119;-66
2022/07/07 12:47:45;;;;;;;10.50;1.67;;;19.10;99.90;;;;;;5082201;28;20040;-66
2022/07/07 12:50:10;;;;;;;13.00;2.10;;;19.20;99.90;;;;;;5064855;28;20043;-66
2022/07/07 12:52:36;;;;;;;6.43;1.65;;;19.00;99.90;;;;;;5067610;28;20090;-66
2022/07/07 12:55:11;;;;;;;13.25;2.45;;;19.00;99.90;;;;;;5084904;28;20059;-66